sensor_id;sensor_type;location;lat;lon;timestamp;P1;durP1;ratioP1;P2;durP2;ratioP2
17451;SDS011;8843;48.838;9.324;2023-01-04T00:01:29;4.53;;;3.77;;
17451;SDS011;8843;48.838;9.324;2023-01-04T00:03:57;4.63;;;3.93;;
17451;SDS011;8843;48.838;9.324;2023-01-04T00:06:24;5.00;;;4.03;;
17451;SDS011;8843;48.838;9.324;2023-01-04T00:08:52;6.90;;;4.33;;
17451;SDS011;8843;48.838;9.324;2023-01-04T00:11:21;4.50;;;3.97;;
17451;SDS011;8843;48.838;9.324;2023-01-04T00:13:50;4.37;;;3.80;;
17451;SDS011;8843;48.838;9.324;2023-01-04T00:16:18;4.40;;;3.70;;
17451;SDS011;8843;48.838;9.324;2023-01-04T00:18:46;4.93;;;4.00;;
17451;SDS011;8843;48.838;9.324;2023-01-04T00:21:15;4.90;;;4.40;;
17451;SDS011;8843;48.838;9.324;2023-01-04T00:23:44;5.20;;;4.03;;
17451;SDS011;8843;48.838;9.324;2023-01-04T00:26:13;5.90;;;3.97;;
17451;SDS011;8843;48.838;9.324;2023-01-04T00:28:41;4.50;;;4.10;;
17451;SDS011;8843;48.838;9.324;2023-01-04T00:31:09;6.07;;;3.67;;
17451;SDS011;8843;48.838;9.324;2023-01-04T00:33:37;7.70;;;3.93;;
17451;SDS011;8843;48.838;9.324;2023-01-04T00:36:05;4.53;;;3.77;;
17451;SDS011;8843;48.838;9.324;2023-01-04T00:38:35;4.00;;;3.67;;
17451;SDS011;8843;48.838;9.324;2023-01-04T00:41:04;4.00;;;3.60;;
17451;SDS011;8843;48.838;9.324;2023-01-04T00:43:32;5.03;;;3.47;;
17451;SDS011;8843;48.838;9.324;2023-01-04T00:45:59;6.13;;;4.10;;
17451;SDS011;8843;48.838;9.324;2023-01-04T00:48:27;5.33;;;3.50;;
17451;SDS011;8843;48.838;9.324;2023-01-04T00:50:54;4.43;;;4.03;;
17451;SDS011;8843;48.838;9.324;2023-01-04T00:53:21;4.83;;;4.30;;
17451;SDS011;8843;48.838;9.324;2023-01-04T00:55:49;6.00;;;4.57;;
17451;SDS011;8843;48.838;9.324;2023-01-04T00:58:16;5.03;;;4.23;;
17451;SDS011;8843;48.838;9.324;2023-01-04T01:00:43;8.07;;;3.77;;
17451;SDS011;8843;48.838;9.324;2023-01-04T01:03:10;4.07;;;3.67;;
17451;SDS011;8843;48.838;9.324;2023-01-04T01:05:37;5.97;;;3.70;;
17451;SDS011;8843;48.838;9.324;2023-01-04T01:08:04;4.50;;;3.90;;
17451;SDS011;8843;48.838;9.324;2023-01-04T01:10:45;4.63;;;3.93;;
17451;SDS011;8843;48.838;9.324;2023-01-04T01:13:13;6.17;;;3.80;;
17451;SDS011;8843;48.838;9.324;2023-01-04T01:15:40;4.80;;;3.70;;
17451;SDS011;8843;48.838;9.324;2023-01-04T01:18:07;5.23;;;3.50;;
17451;SDS011;8843;48.838;9.324;2023-01-04T01:20:33;6.20;;;3.80;;
17451;SDS011;8843;48.838;9.324;2023-01-04T01:23:00;4.97;;;4.00;;
17451;SDS011;8843;48.838;9.324;2023-01-04T01:25:27;3.93;;;3.47;;
17451;SDS011;8843;48.838;9.324;2023-01-04T01:27:54;6.23;;;4.13;;
17451;SDS011;8843;48.838;9.324;2023-01-04T01:30:22;6.20;;;3.57;;
17451;SDS011;8843;48.838;9.324;2023-01-04T01:32:49;3.97;;;3.40;;
17451;SDS011;8843;48.838;9.324;2023-01-04T01:35:16;4.33;;;3.27;;
17451;SDS011;8843;48.838;9.324;2023-01-04T01:37:43;4.03;;;3.17;;
17451;SDS011;8843;48.838;9.324;2023-01-04T01:40:10;3.37;;;3.07;;
17451;SDS011;8843;48.838;9.324;2023-01-04T01:42:37;4.03;;;3.40;;
17451;SDS011;8843;48.838;9.324;2023-01-04T01:45:05;4.60;;;3.60;;
17451;SDS011;8843;48.838;9.324;2023-01-04T01:47:38;3.57;;;3.27;;
17451;SDS011;8843;48.838;9.324;2023-01-04T01:50:15;3.87;;;3.47;;
17451;SDS011;8843;48.838;9.324;2023-01-04T01:52:49;3.90;;;3.60;;
17451;SDS011;8843;48.838;9.324;2023-01-04T01:55:17;3.30;;;3.00;;
17451;SDS011;8843;48.838;9.324;2023-01-04T01:57:44;3.53;;;3.23;;
17451;SDS011;8843;48.838;9.324;2023-01-04T02:00:13;3.53;;;3.00;;
17451;SDS011;8843;48.838;9.324;2023-01-04T02:02:44;3.90;;;3.50;;
17451;SDS011;8843;48.838;9.324;2023-01-04T02:05:21;3.20;;;2.90;;
17451;SDS011;8843;48.838;9.324;2023-01-04T02:07:50;4.20;;;3.30;;
17451;SDS011;8843;48.838;9.324;2023-01-04T02:10:18;3.17;;;2.90;;
17451;SDS011;8843;48.838;9.324;2023-01-04T02:12:45;4.13;;;3.40;;
17451;SDS011;8843;48.838;9.324;2023-01-04T02:15:15;3.17;;;2.87;;
17451;SDS011;8843;48.838;9.324;2023-01-04T02:17:47;3.57;;;3.17;;
17451;SDS011;8843;48.838;9.324;2023-01-04T02:20:32;5.27;;;3.53;;
17451;SDS011;8843;48.838;9.324;2023-01-04T02:26:26;5.57;;;3.00;;
17451;SDS011;8843;48.838;9.324;2023-01-04T02:32:18;3.20;;;2.90;;
17451;SDS011;8843;48.838;9.324;2023-01-04T02:34:55;5.37;;;3.10;;
17451;SDS011;8843;48.838;9.324;2023-01-04T02:37:26;3.60;;;3.30;;
17451;SDS011;8843;48.838;9.324;2023-01-04T02:40:07;4.33;;;3.77;;
17451;SDS011;8843;48.838;9.324;2023-01-04T02:42:38;4.27;;;3.27;;
17451;SDS011;8843;48.838;9.324;2023-01-04T02:45:28;3.50;;;3.20;;
17451;SDS011;8843;48.838;9.324;2023-01-04T02:48:01;4.03;;;3.17;;
17451;SDS011;8843;48.838;9.324;2023-01-04T02:50:51;3.17;;;2.83;;
17451;SDS011;8843;48.838;9.324;2023-01-04T02:53:21;3.57;;;3.27;;
17451;SDS011;8843;48.838;9.324;2023-01-04T02:55:51;3.73;;;3.43;;
17451;SDS011;8843;48.838;9.324;2023-01-04T02:58:31;3.83;;;3.43;;
17451;SDS011;8843;48.838;9.324;2023-01-04T03:01:12;4.00;;;3.60;;
17451;SDS011;8843;48.838;9.324;2023-01-04T03:04:05;3.50;;;3.20;;
17451;SDS011;8843;48.838;9.324;2023-01-04T03:07:05;3.40;;;3.07;;
17451;SDS011;8843;48.838;9.324;2023-01-04T03:09:38;3.90;;;3.23;;
17451;SDS011;8843;48.838;9.324;2023-01-04T03:12:10;4.33;;;3.73;;
17451;SDS011;8843;48.838;9.324;2023-01-04T03:15:00;3.33;;;3.03;;
17451;SDS011;8843;48.838;9.324;2023-01-04T03:17:32;4.03;;;3.63;;
17451;SDS011;8843;48.838;9.324;2023-01-04T03:20:08;4.07;;;3.67;;
17451;SDS011;8843;48.838;9.324;2023-01-04T03:22:39;4.10;;;3.63;;
17451;SDS011;8843;48.838;9.324;2023-01-04T03:25:27;3.60;;;3.10;;
17451;SDS011;8843;48.838;9.324;2023-01-04T03:28:14;3.37;;;3.07;;
17451;SDS011;8843;48.838;9.324;2023-01-04T03:31:05;5.57;;;3.90;;
17451;SDS011;8843;48.838;9.324;2023-01-04T03:33:53;5.13;;;2.97;;
17451;SDS011;8843;48.838;9.324;2023-01-04T03:36:42;4.07;;;3.67;;
17451;SDS011;8843;48.838;9.324;2023-01-04T03:39:15;3.23;;;2.93;;
17451;SDS011;8843;48.838;9.324;2023-01-04T03:42:05;5.00;;;3.47;;
17451;SDS011;8843;48.838;9.324;2023-01-04T03:44:58;3.87;;;3.20;;
17451;SDS011;8843;48.838;9.324;2023-01-04T03:47:54;4.30;;;3.33;;
17451;SDS011;8843;48.838;9.324;2023-01-04T03:50:46;4.23;;;3.47;;
17451;SDS011;8843;48.838;9.324;2023-01-04T03:53:18;3.37;;;3.07;;
17451;SDS011;8843;48.838;9.324;2023-01-04T03:55:46;3.83;;;3.30;;
17451;SDS011;8843;48.838;9.324;2023-01-04T03:58:15;3.43;;;3.10;;
17451;SDS011;8843;48.838;9.324;2023-01-04T04:00:44;3.33;;;3.03;;
17451;SDS011;8843;48.838;9.324;2023-01-04T04:03:11;3.33;;;3.03;;
17451;SDS011;8843;48.838;9.324;2023-01-04T04:05:39;3.10;;;2.80;;
17451;SDS011;8843;48.838;9.324;2023-01-04T04:08:27;2.80;;;2.60;;
17451;SDS011;8843;48.838;9.324;2023-01-04T04:10:55;3.83;;;3.43;;
17451;SDS011;8843;48.838;9.324;2023-01-04T04:13:23;3.13;;;2.83;;
17451;SDS011;8843;48.838;9.324;2023-01-04T04:15:51;4.07;;;2.90;;
17451;SDS011;8843;48.838;9.324;2023-01-04T04:18:18;4.03;;;2.90;;
17451;SDS011;8843;48.838;9.324;2023-01-04T04:20:45;4.80;;;3.70;;
17451;SDS011;8843;48.838;9.324;2023-01-04T04:23:12;2.90;;;2.60;;
17451;SDS011;8843;48.838;9.324;2023-01-04T04:25:40;3.60;;;2.93;;
17451;SDS011;8843;48.838;9.324;2023-01-04T04:28:07;3.30;;;3.00;;
17451;SDS011;8843;48.838;9.324;2023-01-04T04:30:34;3.80;;;3.10;;
17451;SDS011;8843;48.838;9.324;2023-01-04T04:33:01;3.60;;;2.70;;
17451;SDS011;8843;48.838;9.324;2023-01-04T04:35:28;3.40;;;2.67;;
17451;SDS011;8843;48.838;9.324;2023-01-04T04:37:55;2.90;;;2.70;;
17451;SDS011;8843;48.838;9.324;2023-01-04T04:40:22;3.90;;;2.70;;
17451;SDS011;8843;48.838;9.324;2023-01-04T04:43:08;3.00;;;2.80;;
17451;SDS011;8843;48.838;9.324;2023-01-04T04:45:35;2.70;;;2.50;;
17451;SDS011;8843;48.838;9.324;2023-01-04T04:48:02;4.00;;;3.17;;
17451;SDS011;8843;48.838;9.324;2023-01-04T04:50:29;3.43;;;2.80;;
17451;SDS011;8843;48.838;9.324;2023-01-04T04:52:56;3.77;;;2.60;;
17451;SDS011;8843;48.838;9.324;2023-01-04T04:55:23;2.87;;;2.67;;
17451;SDS011;8843;48.838;9.324;2023-01-04T04:57:50;3.10;;;2.80;;
17451;SDS011;8843;48.838;9.324;2023-01-04T05:00:18;2.67;;;2.40;;
17451;SDS011;8843;48.838;9.324;2023-01-04T05:02:45;2.47;;;2.27;;
17451;SDS011;8843;48.838;9.324;2023-01-04T05:05:12;2.37;;;2.07;;
17451;SDS011;8843;48.838;9.324;2023-01-04T05:07:39;2.50;;;2.30;;
17451;SDS011;8843;48.838;9.324;2023-01-04T05:10:06;2.90;;;2.57;;
17451;SDS011;8843;48.838;9.324;2023-01-04T05:12:33;3.07;;;2.40;;
17451;SDS011;8843;48.838;9.324;2023-01-04T05:15:19;2.40;;;2.20;;
17451;SDS011;8843;48.838;9.324;2023-01-04T05:17:46;2.90;;;2.60;;
17451;SDS011;8843;48.838;9.324;2023-01-04T05:20:12;2.83;;;2.27;;
17451;SDS011;8843;48.838;9.324;2023-01-04T05:22:39;2.70;;;2.27;;
17451;SDS011;8843;48.838;9.324;2023-01-04T05:25:07;3.13;;;2.10;;
17451;SDS011;8843;48.838;9.324;2023-01-04T05:27:36;2.43;;;2.23;;
17451;SDS011;8843;48.838;9.324;2023-01-04T05:30:03;5.47;;;2.47;;
17451;SDS011;8843;48.838;9.324;2023-01-04T05:32:50;3.27;;;2.60;;
17451;SDS011;8843;48.838;9.324;2023-01-04T05:35:16;3.07;;;2.77;;
17451;SDS011;8843;48.838;9.324;2023-01-04T05:37:43;2.20;;;2.07;;
17451;SDS011;8843;48.838;9.324;2023-01-04T05:40:10;2.53;;;2.30;;
17451;SDS011;8843;48.838;9.324;2023-01-04T05:42:37;2.47;;;2.27;;
17451;SDS011;8843;48.838;9.324;2023-01-04T05:45:05;2.87;;;2.27;;
17451;SDS011;8843;48.838;9.324;2023-01-04T05:47:32;2.70;;;2.30;;
17451;SDS011;8843;48.838;9.324;2023-01-04T05:50:01;2.93;;;2.63;;
17451;SDS011;8843;48.838;9.324;2023-01-04T05:52:28;2.67;;;2.40;;
17451;SDS011;8843;48.838;9.324;2023-01-04T05:54:55;3.03;;;2.73;;
17451;SDS011;8843;48.838;9.324;2023-01-04T05:57:22;2.50;;;2.20;;
17451;SDS011;8843;48.838;9.324;2023-01-04T05:59:49;4.00;;;3.33;;
17451;SDS011;8843;48.838;9.324;2023-01-04T06:02:17;2.80;;;2.47;;
17451;SDS011;8843;48.838;9.324;2023-01-04T06:04:45;3.03;;;2.10;;
17451;SDS011;8843;48.838;9.324;2023-01-04T06:07:14;2.70;;;2.50;;
17451;SDS011;8843;48.838;9.324;2023-01-04T06:09:41;3.70;;;2.40;;
17451;SDS011;8843;48.838;9.324;2023-01-04T06:12:09;3.67;;;3.13;;
17451;SDS011;8843;48.838;9.324;2023-01-04T06:14:36;4.10;;;3.60;;
17451;SDS011;8843;48.838;9.324;2023-01-04T06:17:04;3.33;;;3.03;;
17451;SDS011;8843;48.838;9.324;2023-01-04T06:19:31;4.63;;;3.70;;
17451;SDS011;8843;48.838;9.324;2023-01-04T06:21:58;4.03;;;3.63;;
17451;SDS011;8843;48.838;9.324;2023-01-04T06:24:27;2.87;;;2.67;;
17451;SDS011;8843;48.838;9.324;2023-01-04T06:26:54;4.90;;;3.47;;
17451;SDS011;8843;48.838;9.324;2023-01-04T06:29:20;4.73;;;2.97;;
17451;SDS011;8843;48.838;9.324;2023-01-04T06:31:47;3.83;;;2.57;;
17451;SDS011;8843;48.838;9.324;2023-01-04T06:34:14;2.57;;;2.30;;
17451;SDS011;8843;48.838;9.324;2023-01-04T06:36:41;3.63;;;3.10;;
17451;SDS011;8843;48.838;9.324;2023-01-04T06:39:08;4.20;;;3.33;;
17451;SDS011;8843;48.838;9.324;2023-01-04T06:41:36;3.73;;;3.30;;
17451;SDS011;8843;48.838;9.324;2023-01-04T06:44:03;3.80;;;3.10;;
17451;SDS011;8843;48.838;9.324;2023-01-04T06:46:30;4.00;;;3.50;;
17451;SDS011;8843;48.838;9.324;2023-01-04T06:48:57;3.17;;;2.87;;
17451;SDS011;8843;48.838;9.324;2023-01-04T06:51:24;3.47;;;2.60;;
17451;SDS011;8843;48.838;9.324;2023-01-04T06:53:51;3.33;;;2.77;;
17451;SDS011;8843;48.838;9.324;2023-01-04T06:56:18;3.57;;;3.27;;
17451;SDS011;8843;48.838;9.324;2023-01-04T06:58:46;2.90;;;2.53;;
17451;SDS011;8843;48.838;9.324;2023-01-04T07:01:13;3.80;;;3.47;;
17451;SDS011;8843;48.838;9.324;2023-01-04T07:03:40;3.60;;;3.17;;
17451;SDS011;8843;48.838;9.324;2023-01-04T07:06:07;4.83;;;3.93;;
17451;SDS011;8843;48.838;9.324;2023-01-04T07:08:34;3.60;;;3.10;;
17451;SDS011;8843;48.838;9.324;2023-01-04T07:11:01;2.27;;;2.13;;
17451;SDS011;8843;48.838;9.324;2023-01-04T07:13:28;2.80;;;2.60;;
17451;SDS011;8843;48.838;9.324;2023-01-04T07:15:57;1.97;;;1.77;;
17451;SDS011;8843;48.838;9.324;2023-01-04T07:18:23;2.50;;;2.30;;
17451;SDS011;8843;48.838;9.324;2023-01-04T07:20:50;2.53;;;2.33;;
17451;SDS011;8843;48.838;9.324;2023-01-04T07:23:17;2.00;;;1.80;;
17451;SDS011;8843;48.838;9.324;2023-01-04T07:25:44;2.20;;;2.00;;
17451;SDS011;8843;48.838;9.324;2023-01-04T07:28:11;2.37;;;2.17;;
17451;SDS011;8843;48.838;9.324;2023-01-04T07:31:03;2.93;;;2.13;;
17451;SDS011;8843;48.838;9.324;2023-01-04T07:33:30;2.70;;;2.20;;
17451;SDS011;8843;48.838;9.324;2023-01-04T07:36:00;2.03;;;1.80;;
17451;SDS011;8843;48.838;9.324;2023-01-04T07:38:28;3.00;;;2.23;;
17451;SDS011;8843;48.838;9.324;2023-01-04T07:40:55;3.23;;;2.30;;
17451;SDS011;8843;48.838;9.324;2023-01-04T07:43:21;2.90;;;2.13;;
17451;SDS011;8843;48.838;9.324;2023-01-04T07:45:48;2.20;;;2.00;;
17451;SDS011;8843;48.838;9.324;2023-01-04T07:48:17;3.70;;;1.93;;
17451;SDS011;8843;48.838;9.324;2023-01-04T07:50:44;3.80;;;2.07;;
17451;SDS011;8843;48.838;9.324;2023-01-04T07:53:11;2.40;;;2.20;;
17451;SDS011;8843;48.838;9.324;2023-01-04T07:55:38;2.23;;;2.03;;
17451;SDS011;8843;48.838;9.324;2023-01-04T07:58:05;1.97;;;1.77;;
17451;SDS011;8843;48.838;9.324;2023-01-04T08:00:31;3.40;;;2.30;;
17451;SDS011;8843;48.838;9.324;2023-01-04T08:02:58;2.50;;;1.97;;
17451;SDS011;8843;48.838;9.324;2023-01-04T08:05:27;2.33;;;2.00;;
17451;SDS011;8843;48.838;9.324;2023-01-04T08:07:56;3.40;;;1.87;;
17451;SDS011;8843;48.838;9.324;2023-01-04T08:10:23;2.40;;;1.90;;
17451;SDS011;8843;48.838;9.324;2023-01-04T08:12:50;2.50;;;1.60;;
17451;SDS011;8843;48.838;9.324;2023-01-04T08:15:17;2.50;;;1.60;;
17451;SDS011;8843;48.838;9.324;2023-01-04T08:17:44;2.33;;;1.90;;
17451;SDS011;8843;48.838;9.324;2023-01-04T08:20:11;3.63;;;2.00;;
17451;SDS011;8843;48.838;9.324;2023-01-04T08:22:39;2.47;;;2.07;;
17451;SDS011;8843;48.838;9.324;2023-01-04T08:25:06;1.90;;;1.50;;
17451;SDS011;8843;48.838;9.324;2023-01-04T08:27:33;3.73;;;1.80;;
17451;SDS011;8843;48.838;9.324;2023-01-04T08:30:00;2.03;;;1.73;;
17451;SDS011;8843;48.838;9.324;2023-01-04T08:32:27;2.77;;;1.80;;
17451;SDS011;8843;48.838;9.324;2023-01-04T08:34:54;2.00;;;1.80;;
17451;SDS011;8843;48.838;9.324;2023-01-04T08:37:21;5.67;;;1.90;;
17451;SDS011;8843;48.838;9.324;2023-01-04T08:39:49;3.50;;;2.20;;
17451;SDS011;8843;48.838;9.324;2023-01-04T08:42:16;2.13;;;1.70;;
17451;SDS011;8843;48.838;9.324;2023-01-04T08:44:43;2.10;;;1.63;;
17451;SDS011;8843;48.838;9.324;2023-01-04T08:47:10;2.33;;;1.80;;
17451;SDS011;8843;48.838;9.324;2023-01-04T08:49:37;4.47;;;2.10;;
17451;SDS011;8843;48.838;9.324;2023-01-04T08:52:04;2.43;;;1.83;;
17451;SDS011;8843;48.838;9.324;2023-01-04T08:54:33;2.30;;;1.87;;
17451;SDS011;8843;48.838;9.324;2023-01-04T08:57:01;2.50;;;1.90;;
17451;SDS011;8843;48.838;9.324;2023-01-04T08:59:28;2.77;;;1.80;;
17451;SDS011;8843;48.838;9.324;2023-01-04T09:01:55;2.70;;;1.80;;
17451;SDS011;8843;48.838;9.324;2023-01-04T09:04:21;3.20;;;1.90;;
17451;SDS011;8843;48.838;9.324;2023-01-04T09:06:48;2.77;;;1.80;;
17451;SDS011;8843;48.838;9.324;2023-01-04T09:09:15;2.30;;;1.73;;
17451;SDS011;8843;48.838;9.324;2023-01-04T09:11:42;2.60;;;1.53;;
17451;SDS011;8843;48.838;9.324;2023-01-04T09:14:10;3.87;;;2.17;;
17451;SDS011;8843;48.838;9.324;2023-01-04T09:16:38;2.43;;;1.60;;
17451;SDS011;8843;48.838;9.324;2023-01-04T09:19:05;3.03;;;1.87;;
17451;SDS011;8843;48.838;9.324;2023-01-04T09:21:33;2.97;;;1.80;;
17451;SDS011;8843;48.838;9.324;2023-01-04T09:23:59;1.90;;;1.70;;
17451;SDS011;8843;48.838;9.324;2023-01-04T09:26:26;3.57;;;1.73;;
17451;SDS011;8843;48.838;9.324;2023-01-04T09:28:54;1.60;;;1.50;;
17451;SDS011;8843;48.838;9.324;2023-01-04T09:31:23;4.43;;;2.10;;
17451;SDS011;8843;48.838;9.324;2023-01-04T09:33:51;2.10;;;1.87;;
17451;SDS011;8843;48.838;9.324;2023-01-04T09:36:20;1.90;;;1.70;;
17451;SDS011;8843;48.838;9.324;2023-01-04T09:38:48;2.93;;;1.73;;
17451;SDS011;8843;48.838;9.324;2023-01-04T09:41:17;2.53;;;1.53;;
17451;SDS011;8843;48.838;9.324;2023-01-04T09:43:50;2.50;;;1.80;;
17451;SDS011;8843;48.838;9.324;2023-01-04T09:46:21;1.70;;;1.60;;
17451;SDS011;8843;48.838;9.324;2023-01-04T09:48:55;2.50;;;1.67;;
17451;SDS011;8843;48.838;9.324;2023-01-04T09:51:35;3.20;;;1.60;;
17451;SDS011;8843;48.838;9.324;2023-01-04T09:54:07;2.53;;;1.47;;
17451;SDS011;8843;48.838;9.324;2023-01-04T09:56:41;1.87;;;1.37;;
17451;SDS011;8843;48.838;9.324;2023-01-04T09:59:15;1.73;;;1.30;;
17451;SDS011;8843;48.838;9.324;2023-01-04T10:01:48;2.00;;;1.40;;
17451;SDS011;8843;48.838;9.324;2023-01-04T10:04:22;2.23;;;1.50;;
17451;SDS011;8843;48.838;9.324;2023-01-04T10:06:52;2.13;;;1.43;;
17451;SDS011;8843;48.838;9.324;2023-01-04T10:09:19;1.60;;;1.50;;
17451;SDS011;8843;48.838;9.324;2023-01-04T10:11:56;2.13;;;1.50;;
17451;SDS011;8843;48.838;9.324;2023-01-04T10:14:48;2.87;;;1.77;;
17451;SDS011;8843;48.838;9.324;2023-01-04T10:17:28;3.63;;;1.90;;
17451;SDS011;8843;48.838;9.324;2023-01-04T10:23:27;1.50;;;1.40;;
17451;SDS011;8843;48.838;9.324;2023-01-04T10:26:05;3.87;;;1.70;;
17451;SDS011;8843;48.838;9.324;2023-01-04T10:28:43;1.43;;;1.30;;
17451;SDS011;8843;48.838;9.324;2023-01-04T10:31:22;2.20;;;1.50;;
17451;SDS011;8843;48.838;9.324;2023-01-04T10:33:56;1.93;;;1.30;;
17451;SDS011;8843;48.838;9.324;2023-01-04T10:36:29;1.97;;;1.30;;
17451;SDS011;8843;48.838;9.324;2023-01-04T10:38:58;2.13;;;1.30;;
17451;SDS011;8843;48.838;9.324;2023-01-04T10:41:28;1.83;;;1.30;;
17451;SDS011;8843;48.838;9.324;2023-01-04T10:44:02;5.07;;;1.33;;
17451;SDS011;8843;48.838;9.324;2023-01-04T10:46:39;1.30;;;1.20;;
17451;SDS011;8843;48.838;9.324;2023-01-04T10:49:15;1.20;;;1.10;;
17451;SDS011;8843;48.838;9.324;2023-01-04T10:51:49;1.43;;;1.30;;
17451;SDS011;8843;48.838;9.324;2023-01-04T10:54:23;1.47;;;1.20;;
17451;SDS011;8843;48.838;9.324;2023-01-04T10:56:55;0.90;;;0.90;;
17451;SDS011;8843;48.838;9.324;2023-01-04T10:59:31;1.07;;;1.03;;
17451;SDS011;8843;48.838;9.324;2023-01-04T11:02:05;1.37;;;1.10;;
17451;SDS011;8843;48.838;9.324;2023-01-04T11:04:43;3.57;;;1.53;;
17451;SDS011;8843;48.838;9.324;2023-01-04T11:07:18;3.50;;;1.10;;
17451;SDS011;8843;48.838;9.324;2023-01-04T11:09:49;1.83;;;1.20;;
17451;SDS011;8843;48.838;9.324;2023-01-04T11:12:20;2.13;;;1.00;;
17451;SDS011;8843;48.838;9.324;2023-01-04T11:14:48;1.73;;;1.10;;
17451;SDS011;8843;48.838;9.324;2023-01-04T11:17:16;1.10;;;1.00;;
17451;SDS011;8843;48.838;9.324;2023-01-04T11:19:45;3.77;;;0.80;;
17451;SDS011;8843;48.838;9.324;2023-01-04T11:22:13;5.20;;;1.53;;
17451;SDS011;8843;48.838;9.324;2023-01-04T11:24:49;2.00;;;1.17;;
17451;SDS011;8843;48.838;9.324;2023-01-04T11:27:19;1.50;;;0.97;;
17451;SDS011;8843;48.838;9.324;2023-01-04T11:29:51;1.10;;;1.10;;
17451;SDS011;8843;48.838;9.324;2023-01-04T11:32:26;3.60;;;1.00;;
17451;SDS011;8843;48.838;9.324;2023-01-04T11:35:02;1.00;;;0.90;;
17451;SDS011;8843;48.838;9.324;2023-01-04T11:37:30;2.13;;;1.10;;
17451;SDS011;8843;48.838;9.324;2023-01-04T11:40:11;1.13;;;1.03;;
17451;SDS011;8843;48.838;9.324;2023-01-04T11:42:44;1.40;;;0.83;;
17451;SDS011;8843;48.838;9.324;2023-01-04T11:45:17;1.03;;;1.00;;
17451;SDS011;8843;48.838;9.324;2023-01-04T11:47:46;1.40;;;1.10;;
17451;SDS011;8843;48.838;9.324;2023-01-04T11:50:34;1.43;;;1.10;;
17451;SDS011;8843;48.838;9.324;2023-01-04T11:53:06;2.63;;;1.20;;
17451;SDS011;8843;48.838;9.324;2023-01-04T11:55:51;1.03;;;0.90;;
17451;SDS011;8843;48.838;9.324;2023-01-04T11:58:37;1.10;;;1.00;;
17451;SDS011;8843;48.838;9.324;2023-01-04T12:01:07;1.30;;;1.03;;
17451;SDS011;8843;48.838;9.324;2023-01-04T12:03:45;1.30;;;1.20;;
17451;SDS011;8843;48.838;9.324;2023-01-04T12:06:16;1.43;;;1.00;;
17451;SDS011;8843;48.838;9.324;2023-01-04T12:08:45;2.00;;;0.93;;
17451;SDS011;8843;48.838;9.324;2023-01-04T12:11:16;1.00;;;1.00;;
17451;SDS011;8843;48.838;9.324;2023-01-04T12:13:50;1.27;;;1.00;;
17451;SDS011;8843;48.838;9.324;2023-01-04T12:16:20;1.37;;;0.80;;
17451;SDS011;8843;48.838;9.324;2023-01-04T12:18:53;1.20;;;1.10;;
17451;SDS011;8843;48.838;9.324;2023-01-04T12:21:22;1.40;;;1.03;;
17451;SDS011;8843;48.838;9.324;2023-01-04T12:23:51;4.10;;;1.17;;
17451;SDS011;8843;48.838;9.324;2023-01-04T12:26:20;1.07;;;0.90;;
17451;SDS011;8843;48.838;9.324;2023-01-04T12:28:48;1.97;;;1.27;;
17451;SDS011;8843;48.838;9.324;2023-01-04T12:37:05;2.57;;;1.40;;
17451;SDS011;8843;48.838;9.324;2023-01-04T12:39:40;2.37;;;1.13;;
17451;SDS011;8843;48.838;9.324;2023-01-04T12:42:15;3.17;;;1.10;;
17451;SDS011;8843;48.838;9.324;2023-01-04T12:47:50;1.17;;;1.07;;
17451;SDS011;8843;48.838;9.324;2023-01-04T12:53:50;1.00;;;1.00;;
17451;SDS011;8843;48.838;9.324;2023-01-04T12:56:17;1.13;;;0.80;;
17451;SDS011;8843;48.838;9.324;2023-01-04T13:01:36;0.97;;;0.97;;
17451;SDS011;8843;48.838;9.324;2023-01-04T13:06:54;1.03;;;1.00;;
17451;SDS011;8843;48.838;9.324;2023-01-04T13:09:38;0.90;;;0.90;;
17451;SDS011;8843;48.838;9.324;2023-01-04T13:12:18;2.90;;;1.23;;
17451;SDS011;8843;48.838;9.324;2023-01-04T13:15:02;1.20;;;1.10;;
17451;SDS011;8843;48.838;9.324;2023-01-04T13:17:35;2.33;;;1.10;;
17451;SDS011;8843;48.838;9.324;2023-01-04T13:22:50;2.63;;;1.20;;
17451;SDS011;8843;48.838;9.324;2023-01-04T13:25:21;2.63;;;1.20;;
17451;SDS011;8843;48.838;9.324;2023-01-04T13:27:53;1.63;;;1.23;;
17451;SDS011;8843;48.838;9.324;2023-01-04T13:30:28;0.73;;;0.73;;
17451;SDS011;8843;48.838;9.324;2023-01-04T13:32:56;0.83;;;0.80;;
17451;SDS011;8843;48.838;9.324;2023-01-04T13:35:24;1.57;;;1.20;;
17451;SDS011;8843;48.838;9.324;2023-01-04T13:37:51;4.37;;;1.00;;
17451;SDS011;8843;48.838;9.324;2023-01-04T13:40:22;1.77;;;0.90;;
17451;SDS011;8843;48.838;9.324;2023-01-04T13:42:56;1.47;;;0.90;;
17451;SDS011;8843;48.838;9.324;2023-01-04T13:45:48;2.63;;;1.30;;
17451;SDS011;8843;48.838;9.324;2023-01-04T13:48:23;2.80;;;0.80;;
17451;SDS011;8843;48.838;9.324;2023-01-04T13:50:58;1.30;;;1.20;;
17451;SDS011;8843;48.838;9.324;2023-01-04T13:53:27;1.40;;;1.20;;
17451;SDS011;8843;48.838;9.324;2023-01-04T13:55:58;1.10;;;1.00;;
17451;SDS011;8843;48.838;9.324;2023-01-04T13:58:26;1.00;;;0.97;;
17451;SDS011;8843;48.838;9.324;2023-01-04T14:00:55;3.60;;;1.30;;
17451;SDS011;8843;48.838;9.324;2023-01-04T14:03:28;0.83;;;0.83;;
17451;SDS011;8843;48.838;9.324;2023-01-04T14:09:00;1.63;;;1.17;;
17451;SDS011;8843;48.838;9.324;2023-01-04T14:11:33;2.73;;;1.67;;
17451;SDS011;8843;48.838;9.324;2023-01-04T14:14:33;1.23;;;1.10;;
17451;SDS011;8843;48.838;9.324;2023-01-04T14:19:53;1.07;;;0.87;;
17451;SDS011;8843;48.838;9.324;2023-01-04T14:22:24;1.00;;;1.00;;
17451;SDS011;8843;48.838;9.324;2023-01-04T14:24:59;1.00;;;0.90;;
17451;SDS011;8843;48.838;9.324;2023-01-04T14:27:48;2.90;;;1.20;;
17451;SDS011;8843;48.838;9.324;2023-01-04T14:30:22;2.07;;;1.03;;
17451;SDS011;8843;48.838;9.324;2023-01-04T14:32:53;1.67;;;1.10;;
17451;SDS011;8843;48.838;9.324;2023-01-04T14:35:21;1.30;;;1.20;;
17451;SDS011;8843;48.838;9.324;2023-01-04T14:37:48;1.03;;;0.90;;
17451;SDS011;8843;48.838;9.324;2023-01-04T14:40:17;2.83;;;1.00;;
17451;SDS011;8843;48.838;9.324;2023-01-04T14:42:52;1.53;;;1.07;;
17451;SDS011;8843;48.838;9.324;2023-01-04T14:45:19;1.93;;;0.90;;
17451;SDS011;8843;48.838;9.324;2023-01-04T14:47:46;1.13;;;0.80;;
17451;SDS011;8843;48.838;9.324;2023-01-04T14:50:13;1.80;;;0.90;;
17451;SDS011;8843;48.838;9.324;2023-01-04T14:52:48;2.30;;;1.30;;
17451;SDS011;8843;48.838;9.324;2023-01-04T14:55:16;1.80;;;1.10;;
17451;SDS011;8843;48.838;9.324;2023-01-04T14:57:42;0.90;;;0.90;;
17451;SDS011;8843;48.838;9.324;2023-01-04T15:00:13;1.13;;;1.03;;
17451;SDS011;8843;48.838;9.324;2023-01-04T15:02:41;0.73;;;0.73;;
17451;SDS011;8843;48.838;9.324;2023-01-04T15:05:09;1.97;;;1.10;;
17451;SDS011;8843;48.838;9.324;2023-01-04T15:07:37;1.10;;;1.00;;
17451;SDS011;8843;48.838;9.324;2023-01-04T15:10:13;2.03;;;0.80;;
17451;SDS011;8843;48.838;9.324;2023-01-04T15:12:45;0.90;;;0.90;;
17451;SDS011;8843;48.838;9.324;2023-01-04T15:15:13;0.97;;;0.87;;
17451;SDS011;8843;48.838;9.324;2023-01-04T15:17:40;1.43;;;1.00;;
17451;SDS011;8843;48.838;9.324;2023-01-04T15:20:08;0.97;;;0.97;;
17451;SDS011;8843;48.838;9.324;2023-01-04T15:22:35;1.63;;;1.27;;
17451;SDS011;8843;48.838;9.324;2023-01-04T15:25:04;1.00;;;1.00;;
17451;SDS011;8843;48.838;9.324;2023-01-04T15:27:32;0.80;;;0.80;;
17451;SDS011;8843;48.838;9.324;2023-01-04T15:29:59;1.40;;;0.90;;
17451;SDS011;8843;48.838;9.324;2023-01-04T15:32:27;0.80;;;0.80;;
17451;SDS011;8843;48.838;9.324;2023-01-04T15:34:56;1.70;;;1.07;;
17451;SDS011;8843;48.838;9.324;2023-01-04T15:37:23;1.83;;;1.73;;
17451;SDS011;8843;48.838;9.324;2023-01-04T15:39:50;1.33;;;1.10;;
17451;SDS011;8843;48.838;9.324;2023-01-04T15:42:17;1.10;;;0.97;;
17451;SDS011;8843;48.838;9.324;2023-01-04T15:45:01;1.70;;;1.17;;
17451;SDS011;8843;48.838;9.324;2023-01-04T15:47:29;1.30;;;1.20;;
17451;SDS011;8843;48.838;9.324;2023-01-04T15:49:56;1.20;;;1.10;;
17451;SDS011;8843;48.838;9.324;2023-01-04T15:52:23;1.30;;;1.20;;
17451;SDS011;8843;48.838;9.324;2023-01-04T15:54:50;1.40;;;1.00;;
17451;SDS011;8843;48.838;9.324;2023-01-04T15:57:17;1.27;;;1.00;;
17451;SDS011;8843;48.838;9.324;2023-01-04T15:59:45;1.00;;;1.00;;